createdAt,value
2022-08-02T00:03:06.472Z,19.41
2022-08-02T00:08:28.862Z,19.32
2022-08-02T00:13:51.150Z,19.28
2022-08-02T00:19:13.437Z,19.27
2022-08-02T00:24:35.772Z,19.22
2022-08-02T00:29:57.999Z,19.20
2022-08-02T00:35:20.825Z,19.14
2022-08-02T00:40:43.307Z,19.10
2022-08-02T00:46:05.685Z,19.10
2022-08-02T00:51:29.169Z,19.08
2022-08-02T00:56:51.464Z,19.06
2022-08-02T01:02:14.252Z,18.98
2022-08-02T01:07:37.222Z,18.93
2022-08-02T01:12:59.494Z,18.83
2022-08-02T01:18:32.944Z,18.73
2022-08-02T01:24:03.004Z,18.68
2022-08-02T01:29:39.692Z,18.63
2022-08-02T01:35:10.745Z,18.56
2022-08-02T01:40:37.931Z,18.52
2022-08-02T01:46:01.173Z,18.44
2022-08-02T01:51:27.075Z,18.50
2022-08-02T01:56:53.878Z,18.39
2022-08-02T02:02:19.257Z,18.30
2022-08-02T02:07:45.112Z,18.22
2022-08-02T02:13:11.239Z,18.05
2022-08-02T02:18:38.332Z,17.96
2022-08-02T02:24:00.821Z,17.70
2022-08-02T02:29:25.455Z,17.57
2022-08-02T02:34:57.165Z,17.57
2022-08-02T02:40:22.027Z,17.39
2022-08-02T02:45:46.548Z,17.36
2022-08-02T02:51:13.931Z,17.19
2022-08-02T02:56:36.586Z,17.11
2022-08-02T03:01:59.697Z,17.02
2022-08-02T03:07:23.261Z,16.87
2022-08-02T03:12:48.007Z,16.75
2022-08-02T03:18:10.491Z,16.83
2022-08-02T03:23:33.118Z,16.83
2022-08-02T03:28:55.918Z,16.88
2022-08-02T03:34:19.275Z,16.88
2022-08-02T03:39:52.789Z,16.79
2022-08-02T03:45:10.231Z,16.81
2022-08-02T03:50:34.158Z,16.91
2022-08-02T03:55:57.704Z,16.97
2022-08-02T04:01:20.285Z,17.02
2022-08-02T04:06:42.575Z,17.02
2022-08-02T04:12:05.225Z,17.02
2022-08-02T04:17:30.970Z,17.03
2022-08-02T04:23:04.044Z,17.08
2022-08-02T04:28:29.191Z,17.23
2022-08-02T04:33:51.861Z,17.35
2022-08-02T04:39:14.999Z,17.37
2022-08-02T04:44:37.941Z,17.40
2022-08-02T04:50:00.282Z,17.33
2022-08-02T04:55:24.421Z,17.38
2022-08-02T05:00:47.671Z,17.45
2022-08-02T05:06:19.580Z,17.35
2022-08-02T05:11:37.487Z,17.29
2022-08-02T05:17:01.061Z,17.20
2022-08-02T05:22:23.328Z,17.23
2022-08-02T05:27:46.548Z,17.29
2022-08-02T05:33:09.439Z,17.46
2022-08-02T05:38:32.653Z,17.77
2022-08-02T05:43:57.240Z,18.07
2022-08-02T05:49:19.673Z,18.51
2022-08-02T05:55:19.412Z,18.56
2022-08-02T06:00:43.707Z,18.51
2022-08-02T06:06:28.019Z,18.60
2022-08-02T06:12:02.471Z,18.74
2022-08-02T06:17:26.445Z,19.08
2022-08-02T06:22:51.007Z,19.11
2022-08-02T06:28:15.142Z,19.88
2022-08-02T06:33:38.273Z,19.70
2022-08-02T06:39:08.278Z,19.57
2022-08-02T06:44:48.828Z,19.38
2022-08-02T06:49:55.732Z,19.66
2022-08-02T06:55:19.537Z,19.90
2022-08-02T07:00:42.530Z,19.68
2022-08-02T07:06:05.659Z,19.55
2022-08-02T07:11:28.860Z,19.28
2022-08-02T07:16:51.699Z,19.82
2022-08-02T07:22:14.639Z,20.07
2022-08-02T07:27:38.396Z,20.01
2022-08-02T07:33:00.630Z,19.75
2022-08-02T07:38:24.592Z,19.75
2022-08-02T07:43:48.147Z,19.85
2022-08-02T07:49:10.907Z,20.32
2022-08-02T07:54:33.647Z,20.49
2022-08-02T07:59:55.935Z,20.26
2022-08-02T08:05:18.697Z,20.66
2022-08-02T08:10:41.274Z,20.68
2022-08-02T08:16:05.094Z,20.82
2022-08-02T08:21:27.530Z,21.05
2022-08-02T08:26:50.450Z,21.31
2022-08-02T08:37:48.094Z,21.54
2022-08-02T08:43:11.764Z,21.69
2022-08-02T08:48:35.421Z,21.76
2022-08-02T08:54:01.601Z,22.14
2022-08-02T08:59:25.410Z,22.25
2022-08-02T09:04:52.934Z,22.16
2022-08-02T09:10:30.631Z,21.92
2022-08-02T09:16:12.690Z,22.14
2022-08-02T09:21:31.816Z,22.47
2022-08-02T09:26:56.513Z,22.25
2022-08-02T09:32:23.196Z,22.62
2022-08-02T09:37:48.724Z,22.96
2022-08-02T09:43:20.172Z,23.24
2022-08-02T09:48:42.787Z,23.49
2022-08-02T09:54:12.398Z,23.55
2022-08-02T09:59:37.462Z,23.44
2022-08-02T10:04:59.956Z,24.23
2022-08-02T10:10:24.207Z,25.08
2022-08-02T10:15:50.383Z,25.35
2022-08-02T10:21:16.189Z,24.89
2022-08-02T10:26:39.697Z,24.68
2022-08-02T10:32:25.334Z,24.91
2022-08-02T10:37:51.519Z,26.37
2022-08-02T10:43:15.847Z,26.38
2022-08-02T10:48:38.961Z,25.75
2022-08-02T10:54:08.011Z,26.45
2022-08-02T10:59:45.382Z,26.16
2022-08-02T11:05:15.772Z,25.93
2022-08-02T11:10:47.334Z,26.70
2022-08-02T11:16:17.856Z,27.36
2022-08-02T11:21:48.022Z,27.29
2022-08-02T11:27:25.825Z,26.44
2022-08-02T11:32:48.564Z,26.76
2022-08-02T11:38:24.802Z,27.40
2022-08-02T11:43:47.996Z,27.68
2022-08-02T11:49:21.145Z,26.52
2022-08-02T11:54:46.913Z,26.17
2022-08-02T12:00:23.319Z,27.72
2022-08-02T12:06:04.851Z,28.03
2022-08-02T12:11:13.326Z,26.80
2022-08-02T12:17:00.676Z,27.35
2022-08-02T12:22:32.228Z,27.90
2022-08-02T12:27:59.705Z,27.72
2022-08-02T12:33:27.547Z,27.99
2022-08-02T12:39:00.141Z,28.63
2022-08-02T12:44:29.999Z,27.80
2022-08-02T12:49:53.433Z,27.45
2022-08-02T12:56:01.931Z,28.53
2022-08-02T13:01:02.831Z,28.96
2022-08-02T13:06:43.021Z,28.12
2022-08-02T13:11:50.411Z,28.41
2022-08-02T13:17:13.027Z,28.20
2022-08-02T13:22:35.319Z,29.51
2022-08-02T13:27:58.910Z,29.00
2022-08-02T13:33:23.248Z,29.33
2022-08-02T13:38:45.968Z,29.52
2022-08-02T13:44:11.040Z,28.95
2022-08-02T13:49:51.647Z,29.22
2022-08-02T13:54:57.811Z,29.24
2022-08-02T14:00:35.128Z,29.40
2022-08-02T14:05:48.956Z,29.53
2022-08-02T14:11:11.623Z,29.34
2022-08-02T14:16:34.851Z,29.89
2022-08-02T14:22:10.802Z,29.15
2022-08-02T14:27:22.744Z,29.15
2022-08-02T14:32:44.949Z,30.78
2022-08-02T14:38:07.584Z,30.49
2022-08-02T14:43:47.911Z,30.90
2022-08-02T14:49:10.735Z,30.43
2022-08-02T14:54:34.216Z,29.84
2022-08-02T14:59:59.001Z,29.52
2022-08-02T15:05:21.580Z,31.34
2022-08-02T15:10:44.592Z,31.33
2022-08-02T15:16:07.301Z,29.77
2022-08-02T15:21:41.982Z,30.52
2022-08-02T15:26:54.200Z,30.89
2022-08-02T15:32:18.874Z,30.38
2022-08-02T15:37:41.737Z,30.46
2022-08-02T15:43:05.081Z,30.37
2022-08-02T15:48:27.641Z,29.53
2022-08-02T15:53:50.607Z,30.38
2022-08-02T15:59:13.427Z,30.38
2022-08-02T16:04:36.175Z,30.07
2022-08-02T16:09:58.610Z,30.19
2022-08-02T16:15:21.853Z,30.44
2022-08-02T16:20:45.116Z,30.76
2022-08-02T16:26:07.687Z,30.52
2022-08-02T16:31:30.812Z,30.57
2022-08-02T16:36:53.871Z,30.62
2022-08-02T16:42:20.646Z,30.69
2022-08-02T16:47:43.445Z,30.18
2022-08-02T16:53:07.096Z,29.51
2022-08-02T16:58:30.295Z,29.15
2022-08-02T17:03:57.062Z,28.56
2022-08-02T17:10:04.455Z,28.36
2022-08-02T17:14:54.535Z,28.56
2022-08-02T17:20:07.108Z,28.65
2022-08-02T17:25:31.937Z,28.08
2022-08-02T17:30:54.906Z,27.60
2022-08-02T17:36:19.025Z,26.93
2022-08-02T17:41:49.108Z,26.36
2022-08-02T17:47:08.744Z,26.00
2022-08-02T17:52:50.201Z,25.23
2022-08-02T17:57:59.413Z,24.45
2022-08-02T18:03:22.992Z,23.60
2022-08-02T18:08:46.064Z,23.02
2022-08-02T18:14:10.516Z,22.55
2022-08-02T18:19:42.887Z,22.12
2022-08-02T18:25:00.391Z,21.90
2022-08-02T18:30:28.451Z,21.59
2022-08-02T18:35:51.793Z,21.13
2022-08-02T18:41:17.419Z,20.97
2022-08-02T18:46:40.928Z,20.70
2022-08-02T18:52:04.936Z,20.42
2022-08-02T18:58:19.183Z,20.09
2022-08-02T19:02:55.059Z,19.68
2022-08-02T19:08:18.728Z,19.50
2022-08-02T19:13:42.795Z,19.37
2022-08-02T19:19:05.397Z,19.51
2022-08-02T19:24:27.853Z,19.18
2022-08-02T19:29:53.395Z,19.02
2022-08-02T19:35:29.402Z,18.98
2022-08-02T19:40:43.683Z,18.62
2022-08-02T19:46:07.092Z,18.46
2022-08-02T19:51:55.108Z,18.39
2022-08-02T19:56:55.489Z,18.23
2022-08-02T20:02:19.707Z,18.22
2022-08-02T20:07:54.843Z,18.14
2022-08-02T20:13:08.083Z,18.12
2022-08-02T20:18:32.157Z,18.13
2022-08-02T20:23:56.110Z,17.92
2022-08-02T20:29:42.886Z,18.03
2022-08-02T20:34:43.211Z,18.00
2022-08-02T20:40:07.156Z,17.92
2022-08-02T20:45:30.849Z,17.84
2022-08-02T20:50:57.841Z,17.46
2022-08-02T20:56:20.875Z,17.36
2022-08-02T21:01:56.827Z,17.36
2022-08-02T21:07:07.449Z,17.39
2022-08-02T21:12:32.084Z,17.22
2022-08-02T21:18:01.300Z,16.97
2022-08-02T21:23:20.062Z,16.91
2022-08-02T21:28:44.256Z,16.79
2022-08-02T21:34:19.261Z,16.63
2022-08-02T21:39:32.817Z,16.68
2022-08-02T21:44:55.131Z,16.67
2022-08-02T21:50:17.949Z,16.52
2022-08-02T21:56:01.067Z,16.57
2022-08-02T22:01:04.767Z,16.71
2022-08-02T22:06:27.150Z,16.55
2022-08-02T22:11:50.553Z,16.28
2022-08-02T22:17:13.983Z,16.26
2022-08-02T22:22:36.666Z,16.30
2022-08-02T22:28:13.354Z,16.05
2022-08-02T22:33:47.404Z,15.98
2022-08-02T22:39:18.695Z,15.88
2022-08-02T22:44:31.598Z,15.73
2022-08-02T22:49:59.367Z,15.65
2022-08-02T22:55:21.351Z,15.57
2022-08-02T23:00:45.171Z,15.39
2022-08-02T23:06:08.142Z,15.50
2022-08-02T23:11:30.619Z,15.45
2022-08-02T23:17:11.333Z,15.35
2022-08-02T23:22:35.692Z,15.22
2022-08-02T23:27:58.444Z,15.13
2022-08-02T23:33:21.043Z,15.09
2022-08-02T23:38:43.711Z,15.03
2022-08-02T23:44:15.044Z,14.88
2022-08-02T23:49:32.344Z,14.77
2022-08-02T23:54:54.624Z,14.81
